Alva, Mississippi
Current Conditions -  °F | °C
As of 10:55 PM on Sunday 23 Nov 2014 (Local Time) from KGNF Reporting Station
Clear Clear  
Wind Chill: 61°   Ceiling: Unl
Heat Index: 61°   Visibility: 10mi
Dew Point: 55°   Wind: 6mph
Humidity: 82%   Direction: 220°SW
Pressure: 29.54"   Gusts: NA
Location:  33.6702°N, 89.6861°W
Report Text: KGNF 240455Z AUTO 22005KT 10SM CLR 16/13 A2954 RMK AO2
Loading
Personal Weather Stations






























Interactive Weather Map New forecast layout! Learn more

10-Day Weather Forecast

Advertisements
Track Severe Weather on mobile